createdAt,value
2022-12-14T00:00:09.538Z,0.30
2022-12-14T00:02:36.140Z,0.30
2022-12-14T00:05:02.778Z,0.30
2022-12-14T00:07:29.517Z,0.30
2022-12-14T00:09:56.036Z,0.20
2022-12-14T00:12:22.555Z,0.30
2022-12-14T00:14:49.034Z,0.30
2022-12-14T00:17:15.623Z,0.30
2022-12-14T00:19:42.142Z,0.30
2022-12-14T00:22:08.631Z,0.30
2022-12-14T00:24:35.096Z,0.20
2022-12-14T00:27:01.592Z,0.30
2022-12-14T00:29:28.156Z,0.20
2022-12-14T00:31:54.605Z,0.30
2022-12-14T00:34:21.060Z,0.28
2022-12-14T00:36:47.533Z,0.30
2022-12-14T00:39:14.091Z,0.30
2022-12-14T00:41:40.627Z,0.30
2022-12-14T00:44:07.195Z,0.30
2022-12-14T00:46:33.822Z,0.20
2022-12-14T00:49:00.339Z,0.30
2022-12-14T00:51:26.948Z,0.20
2022-12-14T00:53:53.412Z,0.30
2022-12-14T00:56:19.943Z,0.22
2022-12-14T00:58:53.726Z,0.20
2022-12-14T01:01:21.168Z,0.30
2022-12-14T01:03:48.783Z,0.20
2022-12-14T01:06:20.624Z,0.28
2022-12-14T01:08:47.797Z,0.30
2022-12-14T01:11:14.983Z,0.30
2022-12-14T01:13:42.390Z,0.30
2022-12-14T01:16:11.754Z,0.20
2022-12-14T01:18:39.752Z,0.30
2022-12-14T01:21:12.456Z,0.30
2022-12-14T01:23:39.851Z,0.30
2022-12-14T01:26:06.632Z,0.30
2022-12-14T01:28:33.121Z,0.30
2022-12-14T01:30:59.629Z,0.30
2022-12-14T01:33:26.631Z,0.30
2022-12-14T01:35:53.373Z,0.30
2022-12-14T01:38:19.894Z,0.30
2022-12-14T01:40:46.444Z,0.30
2022-12-14T01:43:13.778Z,0.30
2022-12-14T01:45:41.110Z,0.30
2022-12-14T01:48:12.767Z,0.30
2022-12-14T01:50:44.921Z,0.20
2022-12-14T01:53:20.153Z,0.30
2022-12-14T01:55:51.931Z,0.30
2022-12-14T01:58:22.324Z,0.30
2022-12-14T02:00:52.619Z,0.30
2022-12-14T02:03:41.629Z,0.30
2022-12-14T02:06:30.924Z,0.20
2022-12-14T02:08:57.637Z,0.20
2022-12-14T02:11:52.207Z,0.30
2022-12-14T02:14:18.838Z,0.30
2022-12-14T02:16:45.472Z,0.30
2022-12-14T02:19:11.941Z,0.30
2022-12-14T02:22:19.553Z,0.20
2022-12-14T02:25:16.739Z,0.30
2022-12-14T02:27:55.787Z,0.30
2022-12-14T02:30:25.288Z,0.20
2022-12-14T02:33:16.456Z,0.30
2022-12-14T02:38:49.804Z,0.30
2022-12-14T02:41:44.016Z,0.20
2022-12-14T02:44:21.864Z,0.22
2022-12-14T02:46:59.508Z,0.30
2022-12-14T02:49:52.715Z,0.30
2022-12-14T02:52:38.047Z,0.20
2022-12-14T02:55:20.544Z,0.30
2022-12-14T02:58:17.440Z,0.30
2022-12-14T03:00:44.507Z,0.30
2022-12-14T03:03:10.992Z,0.20
2022-12-14T03:05:37.499Z,0.20
2022-12-14T03:08:11.946Z,0.20
2022-12-14T03:10:48.067Z,0.30
2022-12-14T03:13:25.281Z,0.30
2022-12-14T03:16:06.049Z,0.30
2022-12-14T03:18:37.676Z,0.30
2022-12-14T03:21:07.505Z,0.20
2022-12-14T03:23:36.599Z,0.20
2022-12-14T03:26:13.245Z,0.20
2022-12-14T03:28:45.313Z,0.30
2022-12-14T03:31:30.081Z,0.30
2022-12-14T03:33:58.776Z,0.30
2022-12-14T03:36:27.031Z,0.20
2022-12-14T03:38:58.861Z,0.20
2022-12-14T03:41:48.978Z,0.30
2022-12-14T03:44:49.385Z,0.20
2022-12-14T03:47:36.129Z,0.20
2022-12-14T03:50:13.292Z,0.30
2022-12-14T03:52:46.977Z,0.30
2022-12-14T03:55:31.464Z,0.30
2022-12-14T03:58:26.867Z,0.25
2022-12-14T04:01:12.190Z,0.30
2022-12-14T04:03:53.199Z,0.20
2022-12-14T04:06:34.192Z,0.30
2022-12-14T04:09:32.100Z,0.30
2022-12-14T04:12:03.131Z,0.30
2022-12-14T04:17:02.836Z,0.30
2022-12-14T04:19:38.358Z,0.20
2022-12-14T04:22:08.931Z,0.20
2022-12-14T04:24:41.382Z,0.20
2022-12-14T04:27:22.171Z,0.30
2022-12-14T04:29:52.445Z,0.20
2022-12-14T04:33:07.944Z,0.30
2022-12-14T04:35:40.205Z,0.30
2022-12-14T04:38:13.231Z,0.30
2022-12-14T04:40:45.885Z,0.20
2022-12-14T04:43:16.918Z,0.30
2022-12-14T04:48:27.483Z,0.30
2022-12-14T04:51:05.844Z,0.20
2022-12-14T04:53:35.272Z,0.20
2022-12-14T04:56:12.269Z,0.20
2022-12-14T04:58:40.681Z,0.30
2022-12-14T05:01:25.747Z,0.20
2022-12-14T05:04:16.865Z,0.30
2022-12-14T05:07:02.265Z,0.30
2022-12-14T05:09:43.334Z,0.20
2022-12-14T05:15:02.076Z,0.30
2022-12-14T05:17:28.710Z,0.30
2022-12-14T05:19:55.254Z,0.30
2022-12-14T05:22:22.126Z,0.30
2022-12-14T05:24:48.633Z,0.30
2022-12-14T05:27:15.107Z,0.20
2022-12-14T05:29:41.628Z,0.30
2022-12-14T05:32:10.840Z,0.30
2022-12-14T05:34:37.331Z,0.30
2022-12-14T05:37:03.923Z,0.30
2022-12-14T05:39:30.573Z,0.22
2022-12-14T05:41:57.127Z,0.30
2022-12-14T05:44:23.652Z,0.20
2022-12-14T05:46:50.315Z,0.30
2022-12-14T05:49:16.825Z,0.20
2022-12-14T05:51:43.415Z,0.30
2022-12-14T05:54:09.957Z,0.30
2022-12-14T05:56:36.560Z,0.30
2022-12-14T05:59:03.148Z,0.30
2022-12-14T06:01:29.714Z,0.20
2022-12-14T06:03:56.343Z,0.20
2022-12-14T06:06:22.902Z,0.30
2022-12-14T06:08:49.542Z,0.20
2022-12-14T06:11:18.766Z,0.30
2022-12-14T06:13:45.976Z,0.30
2022-12-14T06:16:14.234Z,0.30
2022-12-14T06:19:01.091Z,0.30
2022-12-14T06:21:30.683Z,0.30
2022-12-14T06:23:58.145Z,0.30
2022-12-14T06:26:25.822Z,0.30
2022-12-14T06:28:52.680Z,0.20
2022-12-14T06:31:25.055Z,0.20
2022-12-14T06:33:53.485Z,0.20
2022-12-14T06:36:19.999Z,0.25
2022-12-14T06:38:46.881Z,0.28
2022-12-14T06:41:13.855Z,0.20
2022-12-14T06:43:40.386Z,0.25
2022-12-14T06:46:15.423Z,0.20
2022-12-14T06:48:42.648Z,0.30
2022-12-14T06:51:09.469Z,0.30
2022-12-14T06:53:36.456Z,0.20
2022-12-14T06:56:11.898Z,0.28
2022-12-14T06:58:38.731Z,0.30
2022-12-14T07:01:07.806Z,0.20
2022-12-14T07:03:35.947Z,0.20
2022-12-14T07:06:03.827Z,0.20
2022-12-14T07:08:31.756Z,0.20
2022-12-14T07:11:02.608Z,0.30
2022-12-14T07:15:58.242Z,0.20
2022-12-14T07:18:25.707Z,0.28
2022-12-14T07:21:03.593Z,0.30
2022-12-14T07:23:32.957Z,0.20
2022-12-14T07:26:20.359Z,0.20
2022-12-14T07:28:46.943Z,0.30
2022-12-14T07:31:24.422Z,0.20
2022-12-14T07:33:59.145Z,0.30
2022-12-14T07:36:27.873Z,0.28
2022-12-14T07:38:55.235Z,0.30
2022-12-14T07:41:27.153Z,0.30
2022-12-14T07:43:54.984Z,0.30
2022-12-14T07:46:24.004Z,0.20
2022-12-14T07:48:53.015Z,0.20
2022-12-14T07:51:22.946Z,0.20
2022-12-14T07:53:50.425Z,0.20
2022-12-14T07:56:19.974Z,0.25
2022-12-14T07:58:46.809Z,0.20
2022-12-14T08:01:23.468Z,0.20
2022-12-14T08:03:51.423Z,0.30
2022-12-14T08:06:19.256Z,0.20
2022-12-14T08:08:46.451Z,0.20
2022-12-14T08:11:13.945Z,0.30
2022-12-14T08:13:40.832Z,0.28
2022-12-14T08:16:09.518Z,0.30
2022-12-14T08:18:36.144Z,0.20
2022-12-14T08:21:05.017Z,0.30
2022-12-14T08:23:32.402Z,0.20
2022-12-14T08:26:00.635Z,0.30
2022-12-14T08:28:28.980Z,0.30
2022-12-14T08:30:56.738Z,0.20
2022-12-14T08:33:23.981Z,0.30
2022-12-14T08:35:50.480Z,0.30
2022-12-14T08:38:17.580Z,0.20
2022-12-14T08:40:44.140Z,0.20
2022-12-14T08:43:10.659Z,0.30
2022-12-14T08:45:37.409Z,0.20
2022-12-14T08:48:04.230Z,0.20
2022-12-14T08:50:31.376Z,0.30
2022-12-14T08:52:58.003Z,0.30
2022-12-14T08:55:29.081Z,0.30
2022-12-14T08:57:56.902Z,0.20
2022-12-14T09:00:23.474Z,0.20
2022-12-14T09:02:51.331Z,0.20
2022-12-14T09:05:18.350Z,0.20
2022-12-14T09:07:45.927Z,0.20
2022-12-14T09:10:13.049Z,0.20
2022-12-14T09:12:39.781Z,0.20
2022-12-14T09:15:07.415Z,0.38
2022-12-14T09:17:34.108Z,0.20
2022-12-14T09:20:00.645Z,0.20
2022-12-14T09:22:27.155Z,0.20
2022-12-14T09:24:53.701Z,0.20
2022-12-14T09:27:21.262Z,0.20
2022-12-14T09:29:47.783Z,0.20
2022-12-14T09:32:14.264Z,0.20
2022-12-14T09:34:40.777Z,0.20
2022-12-14T09:37:07.331Z,0.20
2022-12-14T09:39:34.410Z,0.20
2022-12-14T09:42:34.229Z,0.20
2022-12-14T09:45:30.866Z,0.20
2022-12-14T09:48:13.265Z,0.20
2022-12-14T09:50:40.310Z,0.20
2022-12-14T09:53:11.752Z,0.20
2022-12-14T09:55:43.113Z,0.20
2022-12-14T09:58:25.658Z,0.20
2022-12-14T10:01:10.983Z,0.20
2022-12-14T10:04:14.389Z,0.20
2022-12-14T10:07:09.832Z,0.20
2022-12-14T10:09:49.099Z,0.20
2022-12-14T10:12:40.709Z,0.20
2022-12-14T10:15:48.416Z,0.20
2022-12-14T10:18:57.043Z,0.20
2022-12-14T10:21:15.485Z,0.20
2022-12-14T10:23:51.311Z,0.20
2022-12-14T10:26:21.468Z,0.20
2022-12-14T10:29:02.592Z,0.20
2022-12-14T10:34:32.170Z,0.20
2022-12-14T10:37:24.813Z,0.20
2022-12-14T10:39:55.981Z,0.20
2022-12-14T10:42:54.019Z,0.20
2022-12-14T10:45:40.758Z,0.22
2022-12-14T10:48:40.666Z,0.20
2022-12-14T10:51:09.884Z,0.20
2022-12-14T10:54:00.890Z,0.20
2022-12-14T10:56:30.988Z,0.20
2022-12-14T10:59:19.686Z,0.15
2022-12-14T11:01:49.107Z,0.20
2022-12-14T11:04:33.549Z,0.20
2022-12-14T11:07:08.029Z,0.17
2022-12-14T11:09:35.285Z,0.20
2022-12-14T11:12:13.709Z,0.10
2022-12-14T11:15:01.771Z,0.10
2022-12-14T11:17:38.003Z,0.10
2022-12-14T11:20:20.292Z,0.10
2022-12-14T11:22:52.814Z,0.10
2022-12-14T11:25:45.867Z,0.10
2022-12-14T11:28:41.191Z,0.20
2022-12-14T11:31:12.535Z,0.10
2022-12-14T11:36:08.464Z,0.20
2022-12-14T11:38:35.061Z,0.20
2022-12-14T11:41:10.720Z,0.10
2022-12-14T11:43:38.004Z,0.10
2022-12-14T11:46:05.740Z,0.17
2022-12-14T11:48:34.133Z,0.10
2022-12-14T11:51:13.970Z,0.10
2022-12-14T11:53:41.483Z,0.10
2022-12-14T11:56:14.293Z,0.10
2022-12-14T11:58:51.860Z,0.10
2022-12-14T12:01:23.998Z,0.10
2022-12-14T12:03:54.279Z,0.10
2022-12-14T12:06:24.525Z,0.10
2022-12-14T12:08:57.613Z,0.10
2022-12-14T12:11:28.221Z,0.10
2022-12-14T12:14:22.517Z,0.10
2022-12-14T12:16:49.015Z,0.10
2022-12-14T12:19:23.099Z,0.10
2022-12-14T12:21:49.709Z,0.10
2022-12-14T12:24:20.223Z,0.00
2022-12-14T12:26:50.108Z,0.00
2022-12-14T12:29:39.161Z,0.10
2022-12-14T12:32:33.647Z,0.10
2022-12-14T12:35:11.483Z,0.10
2022-12-14T12:37:52.666Z,0.00
2022-12-14T12:40:29.059Z,0.10
2022-12-14T12:43:00.875Z,0.10
2022-12-14T12:45:39.054Z,0.10
2022-12-14T12:48:07.910Z,0.10
2022-12-14T12:50:40.658Z,0.10
2022-12-14T12:53:20.868Z,0.10
2022-12-14T12:55:55.212Z,0.10
2022-12-14T12:58:32.680Z,0.10
2022-12-14T13:01:12.364Z,0.10
2022-12-14T13:03:46.125Z,0.10
2022-12-14T13:06:34.121Z,0.10
2022-12-14T13:09:14.769Z,0.10
2022-12-14T13:11:42.316Z,0.10
2022-12-14T13:14:30.491Z,0.10
2022-12-14T13:16:59.513Z,0.10
2022-12-14T13:19:55.109Z,0.10
2022-12-14T13:22:41.135Z,0.10
2022-12-14T13:25:26.625Z,0.10
2022-12-14T13:28:13.844Z,0.10
2022-12-14T13:31:12.078Z,0.10
2022-12-14T13:33:51.216Z,0.10
2022-12-14T13:36:45.540Z,0.00
2022-12-14T13:39:18.175Z,0.10
2022-12-14T13:42:08.131Z,0.10
2022-12-14T13:45:04.248Z,0.10
2022-12-14T13:47:43.869Z,0.10
2022-12-14T13:50:51.317Z,0.10
2022-12-14T13:53:11.852Z,0.10
2022-12-14T13:55:47.967Z,0.10
2022-12-14T13:58:23.315Z,0.10
2022-12-14T14:00:56.897Z,0.10
2022-12-14T14:03:35.906Z,0.10
2022-12-14T14:06:11.132Z,0.10
2022-12-14T14:08:43.219Z,0.10
2022-12-14T14:11:37.810Z,0.10
2022-12-14T14:14:27.179Z,0.10
2022-12-14T14:17:00.143Z,0.10
2022-12-14T14:19:28.282Z,0.10
2022-12-14T14:22:26.431Z,0.10
2022-12-14T14:24:59.397Z,0.05
2022-12-14T14:27:38.032Z,0.10
2022-12-14T14:30:30.815Z,0.10
2022-12-14T14:33:20.036Z,0.10
2022-12-14T14:35:43.911Z,0.10
2022-12-14T14:38:29.681Z,0.10
2022-12-14T14:41:16.659Z,0.10
2022-12-14T14:43:53.954Z,0.10
2022-12-14T14:46:31.498Z,0.10
2022-12-14T14:48:58.102Z,0.10
2022-12-14T14:51:30.531Z,0.20
2022-12-14T14:57:56.914Z,0.10
2022-12-14T15:00:23.782Z,0.10
2022-12-14T15:02:54.469Z,0.10
2022-12-14T15:05:44.494Z,0.20
2022-12-14T15:08:19.449Z,0.20
2022-12-14T15:10:47.991Z,0.10
2022-12-14T15:13:21.172Z,0.20
2022-12-14T15:15:50.431Z,0.20
2022-12-14T15:18:20.791Z,0.20
2022-12-14T15:21:11.718Z,0.17
2022-12-14T15:23:51.161Z,0.20
2022-12-14T15:26:28.385Z,0.20
2022-12-14T15:29:00.122Z,0.20
2022-12-14T15:31:33.821Z,0.20
2022-12-14T15:34:02.330Z,0.22
2022-12-14T15:36:36.740Z,0.20
2022-12-14T15:39:04.383Z,0.20
2022-12-14T15:41:32.997Z,0.20
2022-12-14T15:44:00.409Z,0.20
2022-12-14T15:46:30.652Z,0.20
2022-12-14T15:49:06.156Z,0.20
2022-12-14T15:51:38.964Z,0.20
2022-12-14T15:54:12.085Z,0.20
2022-12-14T15:56:44.517Z,0.20
2022-12-14T15:59:18.346Z,0.20
2022-12-14T16:01:53.756Z,0.20
2022-12-14T16:04:24.774Z,0.20
2022-12-14T16:07:09.558Z,0.20
2022-12-14T16:09:44.011Z,0.20
2022-12-14T16:12:24.376Z,0.20
2022-12-14T16:15:00.500Z,0.20
2022-12-14T16:17:31.435Z,0.30
2022-12-14T16:20:01.600Z,0.20
2022-12-14T16:22:30.201Z,0.30
2022-12-14T16:25:05.369Z,0.20
2022-12-14T16:27:36.844Z,0.25
2022-12-14T16:30:30.805Z,0.30
2022-12-14T16:33:17.821Z,0.28
2022-12-14T16:35:47.111Z,0.20
2022-12-14T16:38:16.057Z,0.20
2022-12-14T16:40:48.437Z,0.20
2022-12-14T16:43:36.499Z,0.30
2022-12-14T16:46:03.019Z,0.20
2022-12-14T16:48:34.492Z,0.20
2022-12-14T16:51:32.650Z,0.20
2022-12-14T16:54:04.937Z,0.20
2022-12-14T16:56:45.177Z,0.20
2022-12-14T16:59:43.724Z,0.20
2022-12-14T17:02:34.084Z,0.30
2022-12-14T17:05:21.651Z,0.30
2022-12-14T17:07:48.509Z,0.30
2022-12-14T17:10:25.077Z,0.20
2022-12-14T17:12:56.099Z,0.30
2022-12-14T17:17:52.216Z,0.30
2022-12-14T17:20:25.326Z,0.20
2022-12-14T17:22:53.226Z,0.20
2022-12-14T17:25:20.568Z,0.30
2022-12-14T17:27:47.265Z,0.30
2022-12-14T17:30:18.315Z,0.30
2022-12-14T17:32:45.504Z,0.25
2022-12-14T17:35:17.862Z,0.30
2022-12-14T17:37:44.554Z,0.40
2022-12-14T17:40:11.885Z,0.30
2022-12-14T17:42:39.927Z,0.30
2022-12-14T17:45:17.237Z,0.30
2022-12-14T17:47:43.741Z,0.20
2022-12-14T17:50:14.473Z,0.20
2022-12-14T17:52:41.849Z,0.30
2022-12-14T17:55:22.942Z,0.20
2022-12-14T18:00:22.836Z,0.20
2022-12-14T18:02:49.571Z,0.30
2022-12-14T18:05:21.860Z,0.20
2022-12-14T18:07:49.749Z,0.30
2022-12-14T18:10:17.421Z,0.30
2022-12-14T18:12:44.233Z,0.30
2022-12-14T18:15:26.093Z,0.30
2022-12-14T18:17:52.901Z,0.20
2022-12-14T18:20:27.045Z,0.30
2022-12-14T18:22:57.536Z,0.30
2022-12-14T18:25:34.686Z,0.40
2022-12-14T18:28:03.540Z,0.40
2022-12-14T18:30:37.392Z,0.30
2022-12-14T18:33:12.083Z,0.30
2022-12-14T18:35:38.561Z,0.30
2022-12-14T18:38:05.108Z,0.40
2022-12-14T18:40:31.750Z,0.30
2022-12-14T18:42:58.295Z,0.30
2022-12-14T18:45:28.261Z,0.30
2022-12-14T18:47:55.168Z,0.30
2022-12-14T18:50:22.726Z,0.40
2022-12-14T18:52:49.625Z,0.40
2022-12-14T18:55:24.964Z,0.37
2022-12-14T18:57:54.369Z,0.30
2022-12-14T19:00:23.637Z,0.30
2022-12-14T19:02:50.600Z,0.30
2022-12-14T19:05:24.250Z,0.30
2022-12-14T19:07:53.059Z,0.40
2022-12-14T19:10:23.757Z,0.30
2022-12-14T19:12:50.742Z,0.30
2022-12-14T19:15:22.423Z,0.30
2022-12-14T19:17:50.340Z,0.30
2022-12-14T19:20:18.379Z,0.40
2022-12-14T19:22:45.956Z,0.30
2022-12-14T19:25:12.893Z,0.30
2022-12-14T19:28:25.569Z,0.30
2022-12-14T19:30:28.846Z,0.40
2022-12-14T19:32:58.007Z,0.40
2022-12-14T19:35:24.761Z,0.40
2022-12-14T19:37:51.776Z,0.40
2022-12-14T19:40:19.355Z,0.30
2022-12-14T19:42:50.247Z,0.40
2022-12-14T19:45:17.036Z,0.30
2022-12-14T19:47:43.696Z,0.30
2022-12-14T19:50:13.997Z,0.40
2022-12-14T19:52:41.060Z,0.40
2022-12-14T19:55:08.093Z,0.40
2022-12-14T19:57:35.250Z,0.30
2022-12-14T20:00:01.963Z,0.30
2022-12-14T20:02:32.014Z,0.30
2022-12-14T20:04:58.879Z,0.30
2022-12-14T20:07:28.051Z,0.30
2022-12-14T20:09:55.713Z,0.30
2022-12-14T20:12:34.541Z,0.40
2022-12-14T20:15:02.410Z,0.30
2022-12-14T20:17:33.376Z,0.40
2022-12-14T20:20:05.025Z,0.30
2022-12-14T20:22:32.049Z,0.40
2022-12-14T20:24:58.704Z,0.40
2022-12-14T20:27:26.051Z,0.50
2022-12-14T20:29:54.052Z,0.40
2022-12-14T20:32:21.383Z,0.30
2022-12-14T20:34:48.296Z,0.30
2022-12-14T20:37:32.545Z,0.30
2022-12-14T20:40:05.074Z,0.40
2022-12-14T20:42:31.875Z,0.30
2022-12-14T20:45:01.367Z,0.40
2022-12-14T20:47:32.130Z,0.33
2022-12-14T20:49:58.685Z,0.40
2022-12-14T20:52:25.208Z,0.30
2022-12-14T20:54:51.860Z,0.40
2022-12-14T20:57:18.357Z,0.40
2022-12-14T20:59:48.012Z,0.30
2022-12-14T21:02:18.915Z,0.30
2022-12-14T21:07:12.646Z,0.40
2022-12-14T21:09:39.232Z,0.30
2022-12-14T21:12:06.070Z,0.40
2022-12-14T21:14:38.278Z,0.40
2022-12-14T21:17:05.708Z,0.30
2022-12-14T21:19:33.421Z,0.40
2022-12-14T21:22:00.051Z,0.30
2022-12-14T21:25:00.874Z,0.30
2022-12-14T21:27:18.055Z,0.40
2022-12-14T21:29:45.161Z,0.30
2022-12-14T21:32:12.380Z,0.40
2022-12-14T21:34:40.652Z,0.30
2022-12-14T21:37:17.718Z,0.30
2022-12-14T21:39:55.877Z,0.37
2022-12-14T21:42:24.543Z,0.40
2022-12-14T21:44:53.790Z,0.40
2022-12-14T21:47:24.007Z,0.40
2022-12-14T21:49:55.585Z,0.30
2022-12-14T21:52:25.003Z,0.40
2022-12-14T21:54:51.603Z,0.33
2022-12-14T21:57:26.443Z,0.40
2022-12-14T21:59:52.949Z,0.33
2022-12-14T22:02:24.668Z,0.40
2022-12-14T22:04:51.978Z,0.40
2022-12-14T22:07:20.697Z,0.33
2022-12-14T22:09:49.454Z,0.40
2022-12-14T22:12:17.376Z,0.30
2022-12-14T22:14:43.944Z,0.30
2022-12-14T22:17:13.175Z,0.30
2022-12-14T22:19:40.016Z,0.30
2022-12-14T22:22:06.927Z,0.30
2022-12-14T22:24:33.559Z,0.30
2022-12-14T22:27:00.125Z,0.30
2022-12-14T22:29:26.691Z,0.30
2022-12-14T22:31:53.422Z,0.30
2022-12-14T22:34:22.272Z,0.40
2022-12-14T22:36:50.192Z,0.40
2022-12-14T22:39:17.633Z,0.30
2022-12-14T22:41:44.340Z,0.40
2022-12-14T22:44:12.424Z,0.30
2022-12-14T22:46:39.699Z,0.30
2022-12-14T22:49:06.608Z,0.40
2022-12-14T22:51:33.084Z,0.40
2022-12-14T22:53:59.678Z,0.40
2022-12-14T22:56:38.668Z,0.40
2022-12-14T22:59:10.535Z,0.30
2022-12-14T23:01:37.866Z,0.30
2022-12-14T23:04:06.534Z,0.40
2022-12-14T23:06:33.742Z,0.30
2022-12-14T23:09:00.368Z,0.30
2022-12-14T23:11:28.263Z,0.30
2022-12-14T23:13:54.763Z,0.30
2022-12-14T23:16:21.259Z,0.40
2022-12-14T23:18:47.814Z,0.30
2022-12-14T23:21:14.459Z,0.40
2022-12-14T23:23:43.391Z,0.30
2022-12-14T23:26:09.968Z,0.40
2022-12-14T23:28:36.561Z,0.30
2022-12-14T23:31:03.263Z,0.30
2022-12-14T23:33:30.276Z,0.40
2022-12-14T23:36:01.156Z,0.40
2022-12-14T23:38:27.705Z,0.30
2022-12-14T23:41:01.614Z,0.40
2022-12-14T23:43:28.510Z,0.33
2022-12-14T23:45:55.358Z,0.33
2022-12-14T23:48:22.033Z,0.40
2022-12-14T23:50:48.521Z,0.40
2022-12-14T23:53:15.068Z,0.40
2022-12-14T23:55:41.532Z,0.37
2022-12-14T23:58:08.118Z,0.50
